Time;durP1;ratioP1;P1;durP2;ratioP2;P2;SDS_P1;SDS_P2;PMS_P1;PMS_P2;Temp;Humidity;BMP_temperature;BMP_pressure;BME280_temperature;BME280_humidity;BME280_pressure;Samples;Min_cycle;Max_cycle;Signal;HPM_P1;HPM_P2
2024/01/10 00:01:26;;;;;;;29.52;26.77;;;-5.40;99.90;;;;;;5028733;28;20094;-74
2024/01/10 00:03:57;;;;;;;30.73;27.60;;;-5.50;99.90;;;;;;5010329;28;20076;-75
2024/01/10 00:06:24;;;;;;;31.05;28.17;;;-5.50;99.90;;;;;;5033487;28;20044;-75
2024/01/10 00:08:50;;;;;;;30.10;27.20;;;-5.60;99.90;;;;;;5033629;28;20645;-76
2024/01/10 00:11:17;;;;;;;31.27;28.13;;;-5.70;99.90;;;;;;5040148;28;20044;-76
2024/01/10 00:13:44;;;;;;;31.02;27.73;;;-5.80;99.90;;;;;;5024085;28;20128;-77
2024/01/10 00:16:15;;;;;;;30.25;27.17;;;-5.90;99.90;;;;;;5039839;28;20569;-76
2024/01/10 00:18:45;;;;;;;32.60;29.15;;;-5.90;99.90;;;;;;5064438;28;20055;-77
2024/01/10 00:21:12;;;;;;;31.65;28.48;;;-6.10;99.90;;;;;;5018584;28;20495;-76
2024/01/10 00:23:39;;;;;;;35.13;27.88;;;-6.00;99.90;;;;;;5027421;28;20055;-76
2024/01/10 00:26:06;;;;;;;30.35;27.27;;;-6.00;99.90;;;;;;5024540;28;20041;-77
2024/01/10 00:28:33;;;;;;;31.27;28.08;;;-5.90;99.90;;;;;;5035097;28;20637;-76
2024/01/10 00:31:00;;;;;;;30.77;27.77;;;-6.00;99.90;;;;;;5032171;28;20094;-76
2024/01/10 00:33:27;;;;;;;31.70;28.63;;;-6.10;99.90;;;;;;5036229;28;20044;-75
2024/01/10 00:35:55;;;;;;;30.45;27.50;;;-6.10;99.90;;;;;;5018073;28;20067;-77
2024/01/10 00:38:22;;;;;;;30.90;27.67;;;-6.10;99.90;;;;;;5020217;28;20229;-77
2024/01/10 00:40:49;;;;;;;31.58;28.58;;;-6.20;99.90;;;;;;5012780;28;20091;-76
2024/01/10 00:43:16;;;;;;;31.80;28.63;;;-6.40;99.90;;;;;;5041348;28;20132;-77
2024/01/10 00:45:42;;;;;;;32.33;28.90;;;-6.40;99.90;;;;;;5015021;28;20045;-77
2024/01/10 00:48:09;;;;;;;31.67;28.52;;;-6.40;99.90;;;;;;5032296;28;20084;-75
2024/01/10 00:50:36;;;;;;;33.10;29.15;;;-6.30;99.90;;;;;;5023077;28;20588;-78
2024/01/10 00:53:03;;;;;;;32.60;29.17;;;-6.20;99.90;;;;;;5045600;28;20036;-77
2024/01/10 00:55:30;;;;;;;32.13;28.73;;;-6.20;99.90;;;;;;5023559;28;20127;-77
2024/01/10 00:57:57;;;;;;;33.15;28.48;;;-6.10;99.90;;;;;;5048831;28;20036;-76
2024/01/10 01:00:24;;;;;;;34.42;28.55;;;-6.10;99.90;;;;;;5033252;28;20443;-76
2024/01/10 01:02:51;;;;;;;32.50;29.17;;;-6.10;99.90;;;;;;5030488;28;20051;-75
2024/01/10 01:05:17;;;;;;;31.75;28.73;;;-6.00;99.90;;;;;;5004078;28;20081;-75
2024/01/10 01:07:44;;;;;;;32.22;29.00;;;-6.10;99.90;;;;;;5030196;28;20040;-77
2024/01/10 01:10:14;;;;;;;31.83;28.75;;;-6.10;99.90;;;;;;5031609;28;20051;-78
2024/01/10 01:12:40;;;;;;;32.25;28.80;;;-6.30;99.90;;;;;;5037503;28;20044;-77
2024/01/10 01:15:07;;;;;;;32.53;28.80;;;-6.30;99.90;;;;;;5005040;28;20045;-77
2024/01/10 01:17:34;;;;;;;31.20;28.20;;;-6.20;99.90;;;;;;5013857;28;20835;-76
2024/01/10 01:20:04;;;;;;;31.52;28.48;;;-6.20;99.90;;;;;;5030869;28;20402;-76
2024/01/10 01:22:31;;;;;;;31.17;28.15;;;-6.20;99.90;;;;;;5029490;28;20056;-75
2024/01/10 01:24:58;;;;;;;32.90;29.30;;;-6.40;99.90;;;;;;5030638;28;20044;-76
2024/01/10 01:27:25;;;;;;;31.27;28.02;;;-6.40;99.90;;;;;;5047588;28;20095;-77
2024/01/10 01:29:56;;;;;;;31.98;28.67;;;-6.50;99.90;;;;;;5038928;28;20068;-76
2024/01/10 01:32:23;;;;;;;34.85;29.95;;;-6.60;99.90;;;;;;5020286;28;20056;-76
2024/01/10 01:34:51;;;;;;;35.20;29.70;;;-6.70;99.90;;;;;;5032910;28;21296;-76
2024/01/10 01:37:18;;;;;;;31.77;28.38;;;-6.60;99.90;;;;;;5032990;28;20091;-77
2024/01/10 01:39:45;;;;;;;34.72;29.75;;;-6.60;99.90;;;;;;5030417;28;20507;-77
2024/01/10 01:42:12;;;;;;;32.17;28.90;;;-6.70;99.90;;;;;;5028768;28;20443;-76
2024/01/10 01:44:39;;;;;;;30.40;27.45;;;-6.70;99.90;;;;;;5025830;28;20061;-75
2024/01/10 01:47:06;;;;;;;31.40;28.10;;;-6.60;99.90;;;;;;5029993;28;20099;-76
2024/01/10 01:49:33;;;;;;;32.63;29.23;;;-6.60;99.90;;;;;;5012043;28;20672;-75
2024/01/10 01:52:01;;;;;;;31.25;28.23;;;-6.60;99.90;;;;;;5042363;28;20059;-75
2024/01/10 01:54:28;;;;;;;34.92;29.80;;;-6.70;99.90;;;;;;5032095;28;20127;-76
2024/01/10 01:56:55;;;;;;;32.42;28.90;;;-6.80;99.90;;;;;;4995314;28;20073;-77
2024/01/10 01:59:22;;;;;;;32.67;29.25;;;-6.70;99.90;;;;;;5007625;28;20053;-77
2024/01/10 02:01:52;;;;;;;33.20;29.63;;;-6.80;99.90;;;;;;5006323;28;20216;-76
2024/01/10 02:04:20;;;;;;;35.47;30.65;;;-6.80;99.90;;;;;;5024327;28;20056;-77
2024/01/10 02:06:47;;;;;;;33.50;30.00;;;-6.80;99.90;;;;;;5030319;28;20060;-75
2024/01/10 02:09:14;;;;;;;32.95;29.50;;;-6.80;99.90;;;;;;5019508;28;20041;-75
2024/01/10 02:11:41;;;;;;;33.47;29.92;;;-6.80;99.90;;;;;;5008021;28;20091;-75
2024/01/10 02:14:08;;;;;;;34.42;30.40;;;-6.70;99.90;;;;;;5028129;28;20041;-77
2024/01/10 02:16:35;;;;;;;34.00;30.35;;;-6.80;99.90;;;;;;5027542;28;20062;-75
2024/01/10 02:19:17;;;;;;;34.63;29.55;;;-6.70;99.90;;;;;;5029369;28;20048;-75
2024/01/10 02:21:44;;;;;;;40.25;32.30;;;-6.90;99.90;;;;;;5025702;28;20041;-78
2024/01/10 02:24:11;;;;;;;36.53;30.88;;;-6.80;99.90;;;;;;5025669;28;20099;-77
2024/01/10 02:26:39;;;;;;;35.80;28.48;;;-6.70;99.90;;;;;;5009805;28;20045;-76
2024/01/10 02:29:06;;;;;;;41.13;31.42;;;-6.60;99.90;;;;;;5028182;28;20040;-77
2024/01/10 02:31:33;;;;;;;35.05;30.15;;;-6.50;99.90;;;;;;5025588;28;20053;-76
2024/01/10 02:34:00;;;;;;;39.25;31.30;;;-6.50;99.90;;;;;;5012517;28;20053;-76
2024/01/10 02:36:27;;;;;;;37.08;31.27;;;-6.40;99.90;;;;;;5017401;28;20037;-76
2024/01/10 02:38:53;;;;;;;37.17;31.98;;;-6.40;99.90;;;;;;5015078;28;20036;-77
2024/01/10 02:41:22;;;;;;;43.65;32.33;;;-6.40;99.90;;;;;;5026378;28;20170;-77
2024/01/10 02:43:49;;;;;;;40.20;32.70;;;-6.20;99.90;;;;;;5020979;28;20209;-79
2024/01/10 02:46:41;;;;;;;41.45;32.20;;;-6.20;99.90;;;;;;5025003;28;20065;-76
2024/01/10 02:49:08;;;;;;;38.08;31.00;;;-6.20;99.90;;;;;;5029083;28;20053;-76
2024/01/10 02:51:35;;;;;;;40.67;32.47;;;-6.20;99.90;;;;;;5031159;28;20092;-76
2024/01/10 02:54:02;;;;;;;39.70;32.63;;;-6.20;99.90;;;;;;5044363;28;20041;-75
2024/01/10 02:56:28;;;;;;;40.63;33.38;;;-6.40;99.90;;;;;;5045787;28;20086;-76
2024/01/10 02:59:00;;;;;;;40.92;32.30;;;-6.40;99.90;;;;;;5036204;28;20033;-77
2024/01/10 03:01:29;;;;;;;37.13;32.28;;;-6.50;99.90;;;;;;5013340;28;20049;-77
2024/01/10 03:03:56;;;;;;;40.38;31.98;;;-6.50;99.90;;;;;;5016361;28;20041;-77
2024/01/10 03:06:24;;;;;;;39.60;33.00;;;-6.50;99.90;;;;;;5037211;28;20049;-78
2024/01/10 03:08:51;;;;;;;41.45;33.35;;;-6.60;99.90;;;;;;5030333;28;20061;-76
2024/01/10 03:11:21;;;;;;;40.95;32.50;;;-6.70;99.90;;;;;;5017990;28;20053;-76
2024/01/10 03:13:50;;;;;;;40.88;33.85;;;-6.70;99.90;;;;;;5032082;28;20133;-77
2024/01/10 03:16:17;;;;;;;43.45;33.67;;;-6.70;99.90;;;;;;5032108;28;20043;-77
2024/01/10 03:18:43;;;;;;;44.13;33.00;;;-6.80;99.90;;;;;;5041760;28;20114;-78
2024/01/10 03:21:13;;;;;;;44.60;34.97;;;-6.80;99.90;;;;;;5033720;28;20503;-78
2024/01/10 03:23:40;;;;;;;46.38;33.05;;;-6.70;99.90;;;;;;5028984;28;20754;-78
2024/01/10 03:26:07;;;;;;;45.75;35.65;;;-6.80;99.90;;;;;;5031949;28;20048;-77
2024/01/10 03:28:34;;;;;;;50.97;36.20;;;-6.80;99.90;;;;;;5018799;28;20045;-77
2024/01/10 03:31:02;;;;;;;39.65;33.42;;;-6.90;99.90;;;;;;5033492;28;20040;-76
2024/01/10 03:33:32;;;;;;;39.30;32.60;;;-6.80;99.90;;;;;;5036099;28;20082;-77
2024/01/10 03:35:59;;;;;;;45.17;33.83;;;-6.90;99.90;;;;;;5066116;28;20617;-76
2024/01/10 03:38:26;;;;;;;50.38;35.05;;;-7.10;99.90;;;;;;5039237;28;20048;-76
2024/01/10 03:40:53;;;;;;;49.50;34.22;;;-7.10;99.90;;;;;;5004402;28;21326;-76
2024/01/10 03:43:20;;;;;;;50.67;35.92;;;-7.20;99.90;;;;;;5033252;28;20048;-77
2024/01/10 03:45:47;;;;;;;46.30;34.42;;;-7.20;99.90;;;;;;5008901;28;20046;-76
2024/01/10 03:48:13;;;;;;;44.13;33.47;;;-7.30;99.90;;;;;;5046233;28;20056;-77
2024/01/10 03:50:40;;;;;;;51.08;35.42;;;-7.30;99.90;;;;;;5012371;28;20119;-77
2024/01/10 03:53:07;;;;;;;43.47;34.45;;;-7.20;99.90;;;;;;5003829;28;20053;-75
2024/01/10 03:55:34;;;;;;;46.42;35.85;;;-7.20;99.90;;;;;;5029389;28;20037;-76
2024/01/10 03:58:00;;;;;;;45.35;33.92;;;-7.20;99.90;;;;;;5032391;28;20053;-77
2024/01/10 04:00:27;;;;;;;46.83;34.35;;;-7.30;99.90;;;;;;5025298;28;20049;-77
2024/01/10 04:02:54;;;;;;;48.17;35.70;;;-7.40;99.90;;;;;;5027067;28;20049;-78
2024/01/10 04:05:21;;;;;;;48.08;34.80;;;-7.50;99.90;;;;;;5009745;28;20099;-76
2024/01/10 04:07:48;;;;;;;49.08;34.00;;;-7.40;99.90;;;;;;5032722;28;20049;-77
2024/01/10 04:10:18;;;;;;;44.92;35.58;;;-7.30;99.90;;;;;;5035229;28;20581;-76
2024/01/10 04:12:47;;;;;;;42.35;35.03;;;-7.20;99.90;;;;;;5013368;28;20053;-76
2024/01/10 04:15:13;;;;;;;47.78;34.42;;;-7.40;99.90;;;;;;5016932;28;20052;-77
2024/01/10 04:17:40;;;;;;;43.92;34.08;;;-7.40;99.90;;;;;;5033158;28;20044;-77
2024/01/10 04:20:09;;;;;;;48.45;36.63;;;-7.40;99.90;;;;;;5007277;28;20057;-75
2024/01/10 04:22:36;;;;;;;48.20;35.58;;;-7.40;99.90;;;;;;5027173;28;20092;-76
2024/01/10 04:25:06;;;;;;;44.53;33.25;;;-7.30;99.90;;;;;;5001545;28;20563;-77
2024/01/10 04:27:33;;;;;;;36.53;31.30;;;-7.20;99.90;;;;;;5035845;28;20728;-77
2024/01/10 04:30:00;;;;;;;43.45;33.95;;;-7.10;99.90;;;;;;5029902;28;20037;-77
2024/01/10 04:32:27;;;;;;;46.22;33.63;;;-7.10;99.90;;;;;;5029091;28;20056;-76
2024/01/10 04:34:54;;;;;;;42.92;32.75;;;-7.20;99.90;;;;;;5026425;28;20131;-76
2024/01/10 04:37:21;;;;;;;46.55;33.83;;;-7.20;99.90;;;;;;5028399;28;20494;-77
2024/01/10 04:39:48;;;;;;;53.45;35.40;;;-7.20;99.90;;;;;;5036820;28;20033;-76
2024/01/10 04:42:15;;;;;;;42.95;33.42;;;-7.20;99.90;;;;;;5050118;28;20811;-78
2024/01/10 04:44:41;;;;;;;53.40;38.15;;;-7.20;99.90;;;;;;5035087;28;20044;-76
2024/01/10 04:47:09;;;;;;;43.63;33.80;;;-7.20;99.90;;;;;;5024241;28;20067;-77
2024/01/10 04:49:36;;;;;;;40.42;32.83;;;-7.20;99.90;;;;;;5048675;28;20055;-76
2024/01/10 04:52:04;;;;;;;43.97;35.33;;;-7.00;99.90;;;;;;5019799;28;20068;-77
2024/01/10 04:54:30;;;;;;;47.33;35.88;;;-7.00;99.90;;;;;;5014520;28;20704;-78
2024/01/10 04:56:57;;;;;;;42.53;35.13;;;-7.00;99.90;;;;;;5015098;28;20050;-77
2024/01/10 04:59:24;;;;;;;51.90;36.13;;;-7.20;99.90;;;;;;5033394;28;20051;-75
2024/01/10 05:01:51;;;;;;;51.80;34.95;;;-7.20;99.90;;;;;;5015360;28;20061;-74
2024/01/10 05:04:18;;;;;;;49.35;36.28;;;-7.20;99.90;;;;;;5012544;28;20037;-75
2024/01/10 05:06:44;;;;;;;50.13;35.28;;;-7.20;99.90;;;;;;5016617;28;20073;-76
2024/01/10 05:09:12;;;;;;;52.00;36.83;;;-7.30;99.90;;;;;;5017194;28;20098;-75
2024/01/10 05:11:39;;;;;;;46.55;36.22;;;-7.30;99.90;;;;;;5035659;28;20041;-76
2024/01/10 05:14:07;;;;;;;58.17;37.63;;;-7.20;99.90;;;;;;5013989;28;20040;-77
2024/01/10 05:16:34;;;;;;;53.80;38.15;;;-7.40;99.90;;;;;;4993284;28;20049;-76
2024/01/10 05:19:04;;;;;;;46.83;36.55;;;-7.60;99.90;;;;;;5000498;28;20044;-76
2024/01/10 05:21:32;;;;;;;55.80;38.80;;;-7.50;99.90;;;;;;5030278;28;20296;-77
2024/01/10 05:23:59;;;;;;;64.28;43.35;;;-7.60;99.90;;;;;;5022800;28;20053;-76
2024/01/10 05:26:26;;;;;;;59.65;39.28;;;-7.70;99.90;;;;;;5015047;28;20040;-77
2024/01/10 05:28:53;;;;;;;57.28;40.78;;;-7.70;99.90;;;;;;5013852;28;21426;-75
2024/01/10 05:31:20;;;;;;;55.10;38.65;;;-7.80;99.90;;;;;;5031773;28;20379;-77
2024/01/10 05:33:47;;;;;;;51.28;39.08;;;-7.70;99.90;;;;;;5029776;28;20048;-75
2024/01/10 05:36:14;;;;;;;55.03;38.10;;;-7.60;99.90;;;;;;5029403;28;20858;-77
2024/01/10 05:38:41;;;;;;;51.88;38.13;;;-7.60;99.90;;;;;;5026801;28;20123;-74
2024/01/10 05:41:08;;;;;;;57.05;38.13;;;-7.70;99.90;;;;;;5016469;28;20124;-77
2024/01/10 05:43:35;;;;;;;50.72;36.20;;;-7.50;99.90;;;;;;5032605;28;20410;-74
2024/01/10 05:46:04;;;;;;;50.67;36.05;;;-7.50;99.90;;;;;;5042354;28;20052;-76
2024/01/10 05:48:32;;;;;;;56.28;37.63;;;-7.50;99.90;;;;;;5013748;28;20052;-75
2024/01/10 05:50:59;;;;;;;49.55;35.45;;;-7.50;99.90;;;;;;5009839;28;20049;-75
2024/01/10 05:53:26;;;;;;;54.60;37.85;;;-7.40;99.90;;;;;;5038181;28;20041;-74
2024/01/10 05:55:52;;;;;;;54.72;39.45;;;-7.30;99.90;;;;;;5015096;28;20045;-77
2024/01/10 05:58:20;;;;;;;40.08;31.67;;;-7.30;99.90;;;;;;5031447;28;20037;-75
2024/01/10 06:00:47;;;;;;;50.08;37.63;;;-7.30;99.90;;;;;;5030345;28;20403;-76
2024/01/10 06:03:14;;;;;;;53.45;39.75;;;-7.30;99.90;;;;;;5024822;28;20048;-75
2024/01/10 06:05:40;;;;;;;58.53;40.67;;;-7.30;99.90;;;;;;5028051;28;20154;-75
2024/01/10 06:08:07;;;;;;;55.92;36.17;;;-7.30;99.90;;;;;;5013895;28;20055;-76
2024/01/10 06:10:34;;;;;;;44.40;36.83;;;-7.40;99.90;;;;;;5029807;28;20072;-79
2024/01/10 06:13:04;;;;;;;54.45;40.30;;;-7.30;99.90;;;;;;5012348;28;20044;-76
2024/01/10 06:15:30;;;;;;;61.03;40.65;;;-7.20;99.90;;;;;;5014283;28;20029;-77
2024/01/10 06:17:58;;;;;;;67.57;40.97;;;-7.20;99.90;;;;;;5032650;28;20530;-76
2024/01/10 06:20:25;;;;;;;59.60;39.92;;;-7.30;99.90;;;;;;5025239;28;20056;-75
2024/01/10 06:22:52;;;;;;;62.28;41.45;;;-7.30;99.90;;;;;;5025370;28;20068;-72
2024/01/10 06:25:19;;;;;;;61.35;42.80;;;-7.30;99.90;;;;;;5029656;28;20107;-74
2024/01/10 06:27:46;;;;;;;52.55;39.55;;;-7.50;99.90;;;;;;5030980;28;20053;-73
2024/01/10 06:30:13;;;;;;;54.22;38.78;;;-7.60;99.90;;;;;;5031977;28;20064;-73
2024/01/10 06:32:40;;;;;;;62.78;40.78;;;-7.50;99.90;;;;;;5017694;28;20047;-74
2024/01/10 06:35:09;;;;;;;103.85;50.03;;;-7.60;99.90;;;;;;5028577;28;20053;-74
2024/01/10 06:37:38;;;;;;;197.48;79.75;;;-7.60;99.90;;;;;;5019870;28;20048;-73
2024/01/10 06:40:05;;;;;;;139.77;66.68;;;-7.60;99.90;;;;;;5033865;28;20448;-76
2024/01/10 06:42:33;;;;;;;113.10;53.50;;;-7.60;99.90;;;;;;5033258;28;20053;-74
2024/01/10 06:44:59;;;;;;;111.18;57.13;;;-7.70;99.90;;;;;;5031624;28;20049;-74
2024/01/10 06:47:26;;;;;;;101.10;49.72;;;-7.70;99.90;;;;;;5002018;28;20430;-73
2024/01/10 06:49:54;;;;;;;107.75;52.25;;;-7.60;99.90;;;;;;5031504;28;20049;-73
2024/01/10 06:52:20;;;;;;;69.78;43.45;;;-7.60;99.90;;;;;;5030164;28;20041;-74
2024/01/10 06:54:47;;;;;;;84.78;47.63;;;-7.60;99.90;;;;;;5034502;28;20036;-73
2024/01/10 06:57:14;;;;;;;67.70;41.70;;;-7.50;99.90;;;;;;5031335;28;20073;-73
2024/01/10 06:59:41;;;;;;;61.85;39.42;;;-7.50;99.90;;;;;;5002835;28;20053;-73
2024/01/10 07:02:08;;;;;;;73.78;42.88;;;-7.40;99.90;;;;;;5031892;28;20064;-75
2024/01/10 07:04:37;;;;;;;49.53;38.42;;;-7.30;99.90;;;;;;5029876;28;20832;-73
2024/01/10 07:07:05;;;;;;;64.68;41.63;;;-7.30;99.90;;;;;;5034023;28;20566;-74
2024/01/10 07:09:33;;;;;;;84.80;48.83;;;-7.30;99.90;;;;;;5018725;28;20075;-74
2024/01/10 07:12:04;;;;;;;72.07;45.63;;;-7.30;99.90;;;;;;5029705;28;20692;-75
2024/01/10 07:14:31;;;;;;;75.95;44.65;;;-7.20;99.90;;;;;;5045449;28;20044;-74
2024/01/10 07:16:57;;;;;;;58.30;42.35;;;-7.30;99.90;;;;;;5011752;28;20574;-74
2024/01/10 07:19:24;;;;;;;62.53;38.95;;;-7.40;99.90;;;;;;5002625;28;20048;-77
2024/01/10 07:21:54;;;;;;;51.05;39.05;;;-7.40;99.90;;;;;;5030210;28;20068;-73
2024/01/10 07:24:21;;;;;;;66.13;42.95;;;-7.30;99.90;;;;;;5027871;28;20049;-73
2024/01/10 07:26:48;;;;;;;60.78;41.28;;;-7.00;99.90;;;;;;5036730;28;20132;-75
2024/01/10 07:29:14;;;;;;;68.93;42.70;;;-7.00;99.90;;;;;;5035871;28;20041;-74
2024/01/10 07:31:41;;;;;;;61.85;42.38;;;-6.90;99.90;;;;;;5036009;28;20053;-75
2024/01/10 07:34:08;;;;;;;55.92;37.10;;;-6.80;99.90;;;;;;5028611;28;20087;-74
2024/01/10 07:36:42;;;;;;;60.13;40.85;;;-6.70;99.90;;;;;;5030907;28;20044;-72
2024/01/10 07:39:10;;;;;;;55.42;39.47;;;-6.70;99.90;;;;;;5014516;28;20042;-74
2024/01/10 07:41:37;;;;;;;60.17;42.05;;;-6.70;99.90;;;;;;5041492;28;20055;-73
2024/01/10 07:44:03;;;;;;;62.35;42.45;;;-6.70;99.90;;;;;;5047748;28;20072;-73
2024/01/10 07:46:31;;;;;;;65.47;39.58;;;-6.70;99.90;;;;;;5013572;28;20045;-72
2024/01/10 07:49:00;;;;;;;64.95;41.35;;;-6.70;99.90;;;;;;5026941;28;20056;-73
2024/01/10 07:51:27;;;;;;;58.80;39.92;;;-6.70;99.90;;;;;;5035359;28;20679;-72
2024/01/10 07:53:53;;;;;;;63.95;42.30;;;-6.60;99.90;;;;;;5037107;28;20045;-72
2024/01/10 07:56:20;;;;;;;70.95;51.55;;;-6.60;99.90;;;;;;5034104;28;20041;-72
2024/01/10 07:58:48;;;;;;;55.88;37.65;;;-6.60;99.90;;;;;;5036253;28;20385;-72
2024/01/10 08:01:15;;;;;;;57.33;40.03;;;-6.60;99.90;;;;;;4995884;28;20410;-73
2024/01/10 08:03:42;;;;;;;57.50;39.47;;;-6.50;99.90;;;;;;5026203;28;20044;-72
2024/01/10 08:06:11;;;;;;;43.33;34.67;;;-6.40;99.90;;;;;;5030726;28;20048;-71
2024/01/10 08:08:49;;;;;;;40.45;36.45;;;-6.40;99.90;;;;;;5019808;28;20507;-72
2024/01/10 08:11:16;;;;;;;67.10;47.90;;;-6.40;99.90;;;;;;5032410;28;20726;-72
2024/01/10 08:13:43;;;;;;;56.20;46.85;;;-6.30;99.90;;;;;;5035684;28;20045;-73
2024/01/10 08:16:10;;;;;;;76.25;59.15;;;-6.30;99.90;;;;;;5034717;28;20044;-71
2024/01/10 08:18:40;;;;;;;68.25;60.15;;;-6.30;99.90;;;;;;5034956;28;20048;-72
2024/01/10 08:21:07;;;;;;;71.30;59.85;;;-6.30;99.90;;;;;;5024679;28;20064;-72
2024/01/10 08:23:34;;;;;;;72.18;64.32;;;-6.20;99.90;;;;;;5029909;28;20069;-73
2024/01/10 08:26:00;;;;;;;65.28;58.63;;;-6.30;99.90;;;;;;5031956;28;20041;-72
2024/01/10 08:28:28;;;;;;;64.97;56.67;;;-6.30;99.90;;;;;;5032394;28;20044;-73
2024/01/10 08:30:54;;;;;;;62.97;54.80;;;-6.20;99.90;;;;;;5035255;28;20538;-72
2024/01/10 08:33:31;;;;;;;70.85;60.30;;;-6.20;99.90;;;;;;5010623;28;20072;-72
2024/01/10 08:35:58;;;;;;;75.13;57.53;;;-6.20;99.90;;;;;;4989709;28;20114;-72
2024/01/10 08:38:26;;;;;;;67.32;56.35;;;-6.10;99.90;;;;;;5031440;28;20036;-72
2024/01/10 08:40:53;;;;;;;67.82;55.30;;;-6.00;99.90;;;;;;5061537;28;20725;-72
2024/01/10 08:43:20;;;;;;;59.65;53.45;;;-5.90;99.90;;;;;;5033406;28;20049;-72
2024/01/10 08:45:47;;;;;;;59.25;53.00;;;-5.80;99.90;;;;;;5015679;28;20550;-72
2024/01/10 08:48:15;;;;;;;63.38;56.95;;;-5.70;99.90;;;;;;5016353;28;20120;-72
2024/01/10 08:50:43;;;;;;;67.55;59.17;;;-5.60;99.90;;;;;;5016795;28;20525;-72
2024/01/10 08:53:11;;;;;;;64.30;57.38;;;-5.40;99.90;;;;;;5035024;28;20041;-72
2024/01/10 08:55:38;;;;;;;64.35;57.67;;;-5.30;99.90;;;;;;5020886;28;20049;-72
2024/01/10 08:58:05;;;;;;;65.38;58.13;;;-5.20;99.90;;;;;;5021045;28;20119;-73
2024/01/10 09:00:32;;;;;;;63.15;56.75;;;-5.20;99.90;;;;;;5028233;28;20110;-72
2024/01/10 09:02:59;;;;;;;64.85;58.33;;;-5.10;99.90;;;;;;5027472;28;20709;-73
2024/01/10 09:05:26;;;;;;;68.00;60.88;;;-5.10;99.90;;;;;;5008129;28;20056;-73
2024/01/10 09:07:54;;;;;;;65.63;58.30;;;-5.00;99.90;;;;;;5009024;28;20053;-72
2024/01/10 09:10:27;;;;;;;66.25;59.53;;;-4.70;99.90;;;;;;5031959;28;21319;-73
2024/01/10 09:12:58;;;;;;;66.57;59.55;;;-4.60;99.90;;;;;;5024650;28;20119;-73
2024/01/10 09:15:26;;;;;;;68.78;62.53;;;-4.50;99.90;;;;;;5011899;28;20045;-74
2024/01/10 09:17:53;;;;;;;67.95;61.00;;;-4.60;99.90;;;;;;5032659;28;20124;-73
2024/01/10 09:20:20;;;;;;;74.30;66.80;;;-4.50;99.90;;;;;;5031444;28;20049;-71
2024/01/10 09:22:48;;;;;;;70.75;63.88;;;-4.10;99.90;;;;;;5031125;28;20476;-72
2024/01/10 09:25:17;;;;;;;70.32;62.75;;;-4.10;99.90;;;;;;5009877;28;20514;-71
2024/01/10 09:27:44;;;;;;;74.30;66.55;;;-4.10;99.90;;;;;;5031417;28;20060;-73
2024/01/10 09:30:12;;;;;;;70.88;64.05;;;-3.90;99.90;;;;;;5014976;28;20045;-72
2024/01/10 09:32:39;;;;;;;71.68;64.32;;;-3.70;99.90;;;;;;5019734;28;20053;-72
2024/01/10 09:35:08;;;;;;;70.45;63.85;;;-3.60;99.90;;;;;;5000910;28;20032;-72
2024/01/10 09:37:35;;;;;;;72.70;66.15;;;-3.50;99.90;;;;;;5011075;28;20047;-72
2024/01/10 09:40:09;;;;;;;64.15;58.53;;;-3.50;99.90;;;;;;5002445;28;20508;-74
2024/01/10 09:42:37;;;;;;;67.55;60.88;;;-3.10;99.90;;;;;;5016998;28;20064;-75
2024/01/10 09:45:05;;;;;;;70.18;63.53;;;-3.00;99.90;;;;;;5020744;28;20052;-75
2024/01/10 09:47:34;;;;;;;70.50;63.28;;;-2.80;99.90;;;;;;5021017;28;20579;-75
2024/01/10 09:50:02;;;;;;;73.72;66.40;;;-2.60;99.90;;;;;;5011861;28;20718;-73
2024/01/10 09:52:37;;;;;;;70.20;64.05;;;-2.30;99.90;;;;;;5008986;28;20041;-74
2024/01/10 09:55:05;;;;;;;67.35;61.25;;;-2.30;99.90;;;;;;5008615;28;20102;-74
2024/01/10 09:57:34;;;;;;;73.25;67.22;;;-2.50;99.90;;;;;;5030422;28;20083;-74
2024/01/10 10:00:04;;;;;;;78.60;71.50;;;-2.60;99.90;;;;;;5032911;28;20063;-73
2024/01/10 10:02:33;;;;;;;80.75;73.45;;;-2.70;99.90;;;;;;5029460;28;20053;-73
2024/01/10 10:05:14;;;;;;;85.60;77.95;;;-2.70;99.90;;;;;;5019812;28;20709;-72
2024/01/10 10:07:53;;;;;;;79.60;72.03;;;-2.70;99.90;;;;;;5028720;28;20216;-72
2024/01/10 10:10:20;;;;;;;76.88;71.05;;;-2.60;99.90;;;;;;5024614;28;20531;-73
2024/01/10 10:12:52;;;;;;;80.30;73.32;;;-2.60;99.90;;;;;;5002687;28;20062;-74
2024/01/10 10:15:23;;;;;;;77.13;70.47;;;-2.80;99.90;;;;;;4982259;28;21634;-75
2024/01/10 10:17:53;;;;;;;77.55;70.72;;;-2.80;99.90;;;;;;5010359;28;20416;-73
2024/01/10 10:20:24;;;;;;;76.40;70.80;;;-2.70;99.90;;;;;;5013043;28;20504;-73
2024/01/10 10:23:04;;;;;;;80.82;73.95;;;-2.80;99.90;;;;;;5010753;28;20041;-73
2024/01/10 10:25:50;;;;;;;94.57;87.50;;;-2.80;99.90;;;;;;5005107;28;20049;-73
2024/01/10 10:28:17;;;;;;;79.00;73.40;;;-2.60;99.90;;;;;;5012020;28;20666;-73
2024/01/10 10:30:55;;;;;;;80.88;74.97;;;-2.50;99.90;;;;;;5030888;28;20139;-73
2024/01/10 10:33:22;;;;;;;84.28;78.35;;;-2.50;99.90;;;;;;4989666;28;20042;-75
2024/01/10 10:35:50;;;;;;;81.63;75.97;;;-2.40;99.90;;;;;;5018649;28;20041;-73
2024/01/10 10:38:22;;;;;;;85.43;78.63;;;-2.50;99.90;;;;;;5034274;28;20041;-75
2024/01/10 10:40:51;;;;;;;85.70;79.57;;;-2.50;99.90;;;;;;5030931;28;20040;-73
2024/01/10 10:43:21;;;;;;;79.47;73.45;;;-2.50;99.90;;;;;;5010577;28;20515;-73
2024/01/10 10:45:50;;;;;;;84.63;77.70;;;-2.50;99.90;;;;;;5014172;28;20069;-73
2024/01/10 10:48:22;;;;;;;85.20;78.78;;;-2.50;99.90;;;;;;5016266;28;20472;-74
2024/01/10 10:51:03;;;;;;;88.85;81.47;;;-2.40;99.90;;;;;;5031747;28;20049;-72
2024/01/10 10:53:33;;;;;;;84.28;77.63;;;-2.40;99.90;;;;;;5034089;28;20040;-74
2024/01/10 10:56:02;;;;;;;79.75;73.07;;;-2.40;99.90;;;;;;5015321;28;20045;-75
2024/01/10 10:58:40;;;;;;;80.85;74.28;;;-2.50;99.90;;;;;;5033763;28;20037;-73
2024/01/10 11:01:09;;;;;;;71.72;66.43;;;-2.50;99.90;;;;;;5051090;28;20045;-74
2024/01/10 11:03:39;;;;;;;78.60;72.15;;;-2.30;99.90;;;;;;5027342;28;20056;-74
2024/01/10 11:06:07;;;;;;;81.78;75.43;;;-2.20;99.90;;;;;;5024913;28;20044;-73
2024/01/10 11:08:40;;;;;;;73.55;68.20;;;-2.00;99.90;;;;;;5035638;28;20064;-74
2024/01/10 11:11:34;;;;;;;77.78;71.18;;;-2.20;99.90;;;;;;5029591;28;20431;-75
2024/01/10 11:14:14;;;;;;;78.18;71.30;;;-2.20;99.90;;;;;;5014709;28;20080;-74
2024/01/10 11:16:49;;;;;;;80.57;74.18;;;-2.10;99.90;;;;;;5018676;28;20662;-73
2024/01/10 11:19:43;;;;;;;80.45;73.55;;;-2.00;99.90;;;;;;5009389;28;20042;-75
2024/01/10 11:22:46;;;;;;;73.03;67.15;;;-1.80;99.90;;;;;;5014743;28;20046;-74
2024/01/10 11:25:14;;;;;;;74.15;68.78;;;-1.90;99.90;;;;;;5006834;28;20054;-76
2024/01/10 11:27:43;;;;;;;76.53;70.68;;;-1.90;99.90;;;;;;5022700;28;20059;-76
2024/01/10 11:30:11;;;;;;;72.88;66.88;;;-1.80;99.90;;;;;;5022266;28;20051;-76
2024/01/10 11:32:39;;;;;;;74.45;68.55;;;-1.70;99.90;;;;;;4998325;28;20059;-76
2024/01/10 11:35:19;;;;;;;72.95;66.97;;;-1.70;99.90;;;;;;5012666;28;20053;-76
2024/01/10 11:37:50;;;;;;;79.20;72.05;;;-1.70;99.90;;;;;;5024053;28;20132;-76
2024/01/10 11:40:44;;;;;;;74.75;69.05;;;-1.70;99.90;;;;;;5032809;28;20045;-76
2024/01/10 11:43:13;;;;;;;77.13;70.63;;;-1.70;99.90;;;;;;5012680;28;20037;-77
2024/01/10 11:45:56;;;;;;;78.93;72.47;;;-1.50;99.90;;;;;;5023107;28;20507;-76
2024/01/10 11:48:27;;;;;;;79.60;73.15;;;-1.30;99.90;;;;;;5030587;28;20048;-77
2024/01/10 11:50:58;;;;;;;70.18;64.93;;;-1.30;99.90;;;;;;4993623;28;20048;-75
2024/01/10 11:53:42;;;;;;;78.18;71.47;;;-1.40;99.90;;;;;;5012832;28;20052;-76
2024/01/10 11:56:15;;;;;;;78.32;71.53;;;-1.30;99.90;;;;;;5017397;28;20034;-76
2024/01/10 11:59:05;;;;;;;79.15;72.25;;;-1.20;99.90;;;;;;5034850;28;20045;-76
2024/01/10 12:01:39;;;;;;;72.60;66.47;;;-1.20;99.90;;;;;;5016096;28;20440;-76
2024/01/10 12:04:11;;;;;;;72.18;66.13;;;-1.20;99.90;;;;;;5032823;28;20099;-76
2024/01/10 12:06:49;;;;;;;68.60;63.40;;;-1.20;99.90;;;;;;5029383;28;20107;-77
2024/01/10 12:09:17;;;;;;;73.28;66.90;;;-1.20;99.90;;;;;;5024420;28;20046;-76
2024/01/10 12:11:44;;;;;;;74.43;67.75;;;-1.20;99.90;;;;;;5014441;28;20089;-76
2024/01/10 12:14:12;;;;;;;75.07;68.20;;;-1.10;99.90;;;;;;5032135;28;20600;-77
2024/01/10 12:16:40;;;;;;;73.47;67.15;;;-1.20;99.90;;;;;;5035749;28;20048;-76
2024/01/10 12:19:08;;;;;;;72.85;66.82;;;-1.10;99.90;;;;;;5033714;28;20049;-76
2024/01/10 12:21:35;;;;;;;76.03;69.13;;;-1.10;99.90;;;;;;5013325;28;20083;-75
2024/01/10 12:24:06;;;;;;;74.88;68.53;;;-1.20;99.90;;;;;;5025619;28;20430;-76
2024/01/10 12:26:33;;;;;;;76.30;69.57;;;-1.00;99.90;;;;;;5034571;28;20477;-75
2024/01/10 12:29:06;;;;;;;69.03;63.55;;;-1.00;99.90;;;;;;5031656;28;20208;-75
2024/01/10 12:31:33;;;;;;;72.38;65.00;;;-1.20;99.90;;;;;;5028875;28;20048;-76
2024/01/10 12:34:01;;;;;;;66.80;60.50;;;-1.30;99.90;;;;;;5033268;28;20053;-75